createdAt,value
2018-02-06T00:01:38.904Z,17.70
2018-02-06T00:04:06.539Z,16.85
2018-02-06T00:06:34.083Z,17.42
2018-02-06T00:09:01.569Z,17.45
2018-02-06T00:11:29.073Z,17.62
2018-02-06T00:13:56.563Z,16.92
2018-02-06T00:16:24.090Z,18.20
2018-02-06T00:18:51.628Z,18.60
2018-02-06T00:21:19.151Z,19.00
2018-02-06T00:23:46.640Z,17.58
2018-02-06T00:26:14.149Z,17.02
2018-02-06T00:28:41.646Z,17.20
2018-02-06T00:31:09.331Z,19.55
2018-02-06T00:33:36.828Z,19.67
2018-02-06T00:36:04.397Z,18.20
2018-02-06T00:38:32.017Z,17.30
2018-02-06T00:40:59.671Z,18.50
2018-02-06T00:43:27.337Z,18.65
2018-02-06T00:45:54.922Z,19.73
2018-02-06T00:48:22.438Z,18.30
2018-02-06T00:50:50.572Z,20.37
2018-02-06T00:53:18.163Z,18.42
2018-02-06T00:55:45.672Z,19.80
2018-02-06T00:58:13.151Z,18.65
2018-02-06T01:00:40.675Z,18.85
2018-02-06T01:03:08.166Z,20.02
2018-02-06T01:05:35.678Z,18.77
2018-02-06T01:08:03.188Z,18.42
2018-02-06T01:10:30.693Z,20.10
2018-02-06T01:12:58.234Z,18.02
2018-02-06T01:15:25.731Z,19.67
2018-02-06T01:17:53.427Z,18.75
2018-02-06T01:20:20.942Z,18.27
2018-02-06T01:22:48.511Z,17.42
2018-02-06T01:25:16.020Z,17.80
2018-02-06T01:27:43.500Z,17.60
2018-02-06T01:30:11.006Z,18.00
2018-02-06T01:32:38.495Z,18.15
2018-02-06T01:35:06.007Z,18.73
2018-02-06T01:37:33.490Z,18.20
2018-02-06T01:40:00.983Z,18.17
2018-02-06T01:42:28.464Z,18.55
2018-02-06T01:44:56.145Z,19.17
2018-02-06T01:47:23.666Z,19.40
2018-02-06T01:50:02.979Z,18.30
2018-02-06T01:52:30.549Z,18.30
2018-02-06T01:54:58.037Z,17.95
2018-02-06T01:57:25.551Z,19.55
2018-02-06T01:59:53.042Z,18.40
2018-02-06T02:02:20.545Z,17.85
2018-02-06T02:04:48.037Z,18.95
2018-02-06T02:07:15.555Z,18.87
2018-02-06T02:09:43.075Z,19.87
2018-02-06T02:12:10.585Z,20.35
2018-02-06T02:14:38.091Z,20.05
2018-02-06T02:17:05.572Z,19.65
2018-02-06T02:19:34.669Z,19.30
2018-02-06T02:22:02.117Z,18.95
2018-02-06T02:24:29.655Z,19.58
2018-02-06T02:26:57.180Z,18.40
2018-02-06T02:29:24.681Z,20.27
2018-02-06T02:31:52.180Z,19.87
2018-02-06T02:34:19.659Z,21.20
2018-02-06T02:36:47.313Z,19.73
2018-02-06T02:39:14.853Z,20.20
2018-02-06T02:41:42.435Z,19.77
2018-02-06T04:39:45.924Z,20.60
2018-02-06T04:42:13.413Z,18.65
2018-02-06T04:44:41.003Z,19.77
2018-02-06T04:47:09.069Z,18.75
2018-02-06T04:49:36.678Z,19.35
2018-02-06T04:52:04.778Z,20.12
2018-02-06T04:54:32.302Z,19.60
2018-02-06T04:57:00.275Z,21.23
2018-02-06T04:59:28.458Z,19.87
2018-02-06T05:01:55.934Z,19.48
2018-02-06T05:04:23.555Z,19.55
2018-02-06T05:06:51.142Z,20.00
2018-02-06T05:09:18.757Z,20.55
2018-02-06T05:11:46.301Z,20.95
2018-02-06T05:14:13.863Z,20.67
2018-02-06T05:16:41.401Z,20.17
2018-02-06T05:19:08.990Z,20.52
2018-02-06T05:21:36.557Z,21.67
2018-02-06T05:24:04.032Z,21.83
2018-02-06T05:26:31.550Z,20.95
2018-02-06T05:28:59.050Z,21.87
2018-02-06T05:31:26.621Z,20.85
2018-02-06T05:33:54.134Z,20.48
2018-02-06T05:36:21.610Z,20.20
2018-02-06T05:38:49.124Z,20.60
2018-02-06T05:41:16.628Z,21.27
2018-02-06T05:43:44.142Z,21.62
2018-02-06T05:46:11.684Z,20.58
2018-02-06T05:48:39.232Z,20.70
2018-02-06T05:51:06.729Z,21.12
2018-02-06T05:53:34.214Z,21.65
2018-02-06T05:56:01.916Z,20.35
2018-02-06T05:58:29.412Z,21.70
2018-02-06T06:00:57.029Z,20.20
2018-02-06T06:03:24.639Z,19.65
2018-02-06T06:05:52.243Z,21.42
2018-02-06T06:08:21.958Z,20.95
2018-02-06T06:10:49.515Z,20.77
2018-02-06T06:13:17.091Z,21.40
2018-02-06T06:15:44.573Z,20.17
2018-02-06T06:18:12.069Z,22.25
2018-02-06T06:20:39.546Z,20.75
2018-02-06T06:23:07.108Z,20.85
2018-02-06T06:25:34.653Z,20.27
2018-02-06T06:28:02.233Z,22.10
2018-02-06T06:30:29.735Z,21.60
2018-02-06T06:32:57.220Z,22.83
2018-02-06T06:35:24.729Z,24.15
2018-02-06T06:37:52.238Z,22.58
2018-02-06T06:40:19.743Z,22.98
2018-02-06T06:42:47.254Z,21.40
2018-02-06T06:45:14.798Z,22.58
2018-02-06T06:47:42.352Z,20.70
2018-02-06T06:50:09.891Z,20.12
2018-02-06T06:52:37.418Z,23.90
2018-02-06T06:55:05.116Z,21.48
2018-02-06T06:57:32.660Z,20.45
2018-02-06T07:00:00.198Z,22.10
2018-02-06T07:02:27.796Z,20.92
2018-02-06T07:04:55.299Z,21.80
2018-02-06T07:07:22.816Z,23.10
2018-02-06T07:09:50.368Z,22.42
2018-02-06T07:12:17.922Z,20.33
2018-02-06T07:14:45.398Z,22.58
2018-02-06T07:17:12.916Z,21.02
2018-02-06T07:19:40.420Z,23.52
2018-02-06T07:22:07.930Z,23.17
2018-02-06T07:24:35.431Z,21.80
2018-02-06T07:27:02.957Z,21.20
2018-02-06T07:29:30.522Z,22.13
2018-02-06T07:31:58.079Z,21.80
2018-02-06T07:34:25.688Z,21.42
2018-02-06T07:36:53.209Z,21.62
2018-02-06T07:39:20.732Z,20.55
2018-02-06T07:41:48.257Z,20.92
2018-02-06T07:44:15.740Z,22.05
2018-02-06T07:46:43.220Z,21.75
2018-02-06T07:49:10.734Z,20.55
2018-02-06T07:51:38.264Z,21.05
2018-02-06T07:54:05.742Z,22.98
2018-02-06T07:56:33.248Z,21.17
2018-02-06T07:59:00.758Z,22.37
2018-02-06T08:01:28.278Z,23.98
2018-02-06T08:03:55.765Z,21.52
2018-02-06T08:06:23.279Z,22.48
2018-02-06T08:08:50.776Z,22.35
2018-02-06T08:11:18.314Z,21.37
2018-02-06T08:13:46.025Z,22.85
2018-02-06T08:16:13.599Z,22.60
2018-02-06T08:18:41.192Z,21.73
2018-02-06T08:21:08.691Z,21.90
2018-02-06T08:23:36.428Z,21.20
2018-02-06T08:26:03.943Z,19.65
2018-02-06T08:28:31.515Z,22.42
2018-02-06T08:30:59.015Z,21.75
2018-02-06T08:33:26.534Z,22.23
2018-02-06T08:35:55.392Z,22.75
2018-02-06T08:38:24.030Z,20.73
2018-02-06T08:40:51.654Z,23.20
2018-02-06T08:43:19.282Z,22.50
2018-02-06T08:45:46.793Z,23.65
2018-02-06T08:48:14.760Z,23.33
2018-02-06T08:50:42.279Z,24.33
2018-02-06T08:53:09.811Z,21.90
2018-02-06T08:55:37.288Z,25.02
2018-02-06T08:58:04.825Z,22.60
2018-02-06T09:00:32.319Z,23.58
2018-02-06T09:02:59.844Z,24.10
2018-02-06T09:05:27.340Z,23.67
2018-02-06T09:07:54.882Z,24.15
2018-02-06T09:10:22.375Z,23.67
2018-02-06T09:12:49.875Z,24.83
2018-02-06T09:15:17.397Z,24.63
2018-02-06T09:17:44.899Z,22.87
2018-02-06T09:20:12.421Z,23.80
2018-02-06T09:22:39.918Z,23.67
2018-02-06T09:25:07.426Z,22.95
2018-02-06T09:27:34.926Z,22.55
2018-02-06T09:30:02.470Z,23.50
2018-02-06T09:32:29.965Z,22.75
2018-02-06T09:34:57.499Z,23.27
2018-02-06T09:37:25.025Z,22.80
2018-02-06T09:39:52.564Z,24.77
2018-02-06T09:42:20.069Z,24.80
2018-02-06T09:44:47.626Z,22.50
2018-02-06T09:47:15.248Z,23.00
2018-02-06T09:49:42.757Z,23.48
2018-02-06T09:52:10.266Z,25.40
2018-02-06T09:54:38.259Z,22.17
2018-02-06T09:57:05.765Z,25.12
2018-02-06T09:59:33.304Z,23.85
2018-02-06T10:02:00.823Z,25.80
2018-02-06T10:04:28.364Z,26.12
2018-02-06T10:06:55.860Z,25.85
2018-02-06T10:09:23.610Z,23.87
2018-02-06T10:11:51.121Z,24.30
2018-02-06T10:14:18.644Z,24.10
2018-02-06T10:16:46.225Z,26.27
2018-02-06T10:19:13.730Z,24.47
2018-02-06T10:21:41.235Z,24.73
2018-02-06T10:24:09.268Z,24.07
2018-02-06T10:26:36.878Z,23.33
2018-02-06T10:29:04.511Z,24.37
2018-02-06T10:31:32.040Z,25.90
2018-02-06T10:33:59.565Z,25.77
2018-02-06T10:36:27.162Z,24.87
2018-02-06T10:38:54.779Z,24.33
2018-02-06T10:41:22.324Z,25.67
2018-02-06T10:43:49.945Z,24.30
2018-02-06T10:46:17.415Z,24.87
2018-02-06T10:48:44.933Z,24.10
2018-02-06T10:51:12.412Z,23.77
2018-02-06T10:53:39.894Z,23.23
2018-02-06T10:56:07.420Z,24.77
2018-02-06T10:58:34.914Z,25.53
2018-02-06T11:01:02.417Z,24.20
2018-02-06T11:03:29.919Z,24.40
2018-02-06T11:05:57.447Z,24.77
2018-02-06T11:08:24.993Z,24.00
2018-02-06T11:10:52.465Z,25.30
2018-02-06T11:13:19.986Z,25.30
2018-02-06T11:15:47.500Z,23.70
2018-02-06T11:18:15.025Z,25.13
2018-02-06T11:20:42.546Z,24.57
2018-02-06T11:23:10.039Z,26.67
2018-02-06T11:25:37.548Z,26.80
2018-02-06T11:28:05.073Z,25.07
2018-02-06T11:30:32.563Z,24.80
2018-02-06T11:33:00.065Z,25.80
2018-02-06T11:35:27.575Z,25.90
2018-02-06T11:37:55.069Z,26.50
2018-02-06T11:40:22.651Z,26.63
2018-02-06T11:42:50.146Z,25.33
2018-02-06T11:45:17.721Z,26.33
2018-02-06T11:47:45.311Z,28.00
2018-02-06T11:50:12.863Z,25.27
2018-02-06T11:52:40.469Z,25.77
2018-02-06T11:55:08.089Z,26.73
2018-02-06T11:57:35.611Z,25.97
2018-02-06T12:00:03.123Z,27.00
2018-02-06T12:02:30.646Z,25.83
2018-02-06T12:04:58.122Z,26.30
2018-02-06T12:07:25.642Z,25.53
2018-02-06T12:09:53.118Z,25.90
2018-02-06T12:12:20.651Z,25.83
2018-02-06T12:14:48.162Z,27.53
2018-02-06T12:17:15.664Z,27.47
2018-02-06T12:19:43.192Z,27.40
2018-02-06T12:22:10.671Z,25.10
2018-02-06T12:24:38.171Z,26.77
2018-02-06T12:27:05.655Z,26.83
2018-02-06T14:42:42.869Z,25.30
2018-02-06T14:45:10.354Z,26.20
2018-02-06T14:47:37.854Z,27.00
2018-02-06T14:50:05.357Z,26.40
2018-02-06T14:52:32.861Z,24.57
2018-02-06T14:55:00.526Z,24.43
2018-02-06T14:57:28.047Z,26.90
2018-02-06T14:59:55.649Z,27.50
2018-02-06T15:02:23.279Z,27.50
2018-02-06T15:04:50.855Z,27.07
2018-02-06T15:07:18.464Z,25.93
2018-02-06T15:09:45.990Z,26.37
2018-02-06T15:12:13.504Z,26.73
2018-02-06T15:14:40.991Z,26.87
2018-02-06T15:17:08.558Z,25.87
2018-02-06T15:19:36.030Z,24.70
2018-02-06T15:22:03.570Z,23.73
2018-02-06T15:24:31.059Z,25.60
2018-02-06T15:26:58.574Z,23.40
2018-02-06T15:29:26.069Z,23.97
2018-02-06T15:31:53.574Z,23.20
2018-02-06T15:34:21.106Z,23.73
2018-02-06T15:36:48.594Z,24.63
2018-02-06T15:39:16.142Z,24.30
2018-02-06T15:41:43.638Z,23.30
2018-02-06T15:44:11.182Z,23.73
2018-02-06T15:46:39.529Z,22.87
2018-02-06T15:49:07.010Z,22.20
2018-02-06T15:51:34.524Z,22.90
2018-02-06T15:54:02.098Z,22.80
2018-02-06T15:56:29.658Z,23.80
2018-02-06T15:58:57.199Z,23.10
2018-02-06T16:01:24.719Z,23.07
2018-02-06T16:03:52.239Z,22.03
2018-02-06T16:06:19.746Z,23.60
2018-02-06T16:08:47.332Z,23.40
2018-02-06T16:11:15.647Z,24.77
2018-02-06T16:13:44.034Z,23.03
2018-02-06T16:16:11.579Z,23.57
2018-02-06T16:18:39.232Z,21.13
2018-02-06T16:21:06.741Z,23.80
2018-02-06T16:23:34.231Z,23.17
2018-02-06T16:26:02.527Z,22.97
2018-02-06T16:28:30.060Z,22.50
2018-02-06T16:30:57.557Z,22.50
2018-02-06T16:33:25.071Z,23.47
2018-02-06T16:35:52.573Z,23.13
2018-02-06T16:38:20.216Z,21.95
2018-02-06T16:40:47.692Z,23.50
2018-02-06T16:43:15.224Z,23.30
2018-02-06T16:45:42.708Z,24.67
2018-02-06T16:48:10.217Z,23.70
2018-02-06T16:50:37.994Z,24.30
2018-02-06T16:53:05.540Z,22.65
2018-02-06T16:55:33.075Z,22.30
2018-02-06T16:58:01.259Z,22.90
2018-02-06T17:00:28.831Z,22.53
2018-02-06T17:02:56.380Z,22.92
2018-02-06T17:05:23.886Z,22.20
2018-02-06T17:07:51.480Z,21.70
2018-02-06T17:10:19.071Z,23.23
2018-02-06T17:12:46.612Z,22.83
2018-02-06T17:15:14.174Z,22.37
2018-02-06T17:17:41.736Z,21.98
2018-02-06T17:20:13.267Z,23.30
2018-02-06T17:22:40.829Z,23.70
2018-02-06T17:25:10.084Z,24.73
2018-02-06T17:27:39.545Z,25.65
2018-02-06T17:30:09.241Z,24.37
2018-02-06T17:32:38.672Z,24.55
2018-02-06T17:35:08.045Z,26.98
2018-02-06T17:37:37.362Z,27.95
2018-02-06T17:40:07.234Z,26.80
2018-02-06T17:42:36.482Z,26.20
2018-02-06T17:45:05.596Z,24.15
2018-02-06T17:47:35.220Z,25.60
2018-02-06T17:50:08.282Z,26.30
2018-02-06T17:52:38.052Z,31.52
2018-02-06T17:55:07.125Z,27.35
2018-02-06T17:57:36.065Z,28.10
2018-02-06T18:00:06.351Z,29.60
2018-02-06T18:02:36.342Z,29.73
2018-02-06T18:05:05.465Z,27.50
2018-02-06T18:07:35.645Z,32.28
2018-02-06T18:10:05.703Z,30.90
2018-02-06T18:12:34.920Z,32.00
2018-02-06T18:15:04.392Z,27.40
2018-02-06T18:17:33.865Z,27.08
2018-02-06T18:20:05.498Z,27.75
2018-02-06T18:22:34.741Z,28.85
2018-02-06T18:25:03.533Z,28.65
2018-02-06T18:27:31.088Z,28.40
2018-02-06T18:29:58.591Z,27.83
2018-02-06T18:32:26.131Z,27.85
2018-02-06T18:34:53.635Z,27.17
2018-02-06T18:37:21.185Z,27.10
2018-02-06T18:39:48.717Z,26.85
2018-02-06T18:42:16.269Z,27.50
2018-02-06T18:44:43.787Z,27.35
2018-02-06T18:47:11.282Z,27.90
2018-02-06T18:49:38.801Z,27.55
2018-02-06T18:52:06.314Z,27.40
2018-02-06T18:54:33.863Z,26.80
2018-02-06T18:57:01.434Z,29.05
2018-02-06T18:59:29.079Z,29.58
2018-02-06T19:01:56.590Z,27.83
2018-02-06T19:04:24.084Z,28.90
2018-02-06T19:06:52.004Z,26.25
2018-02-06T19:09:20.239Z,28.45
2018-02-06T19:11:49.342Z,28.58
2018-02-06T19:14:18.319Z,27.75
2018-02-06T19:16:46.879Z,32.22
2018-02-06T19:19:14.985Z,28.85
2018-02-06T19:21:43.608Z,26.62
2018-02-06T19:24:13.118Z,28.55
2018-02-06T19:26:41.176Z,27.05
2018-02-06T19:29:10.528Z,29.02
2018-02-06T19:31:40.316Z,32.10
2018-02-06T19:34:09.065Z,33.85
2018-02-06T19:36:37.899Z,32.00
2018-02-06T19:39:07.915Z,31.75
2018-02-06T19:41:36.897Z,29.27
2018-02-06T19:44:06.185Z,29.33
2018-02-06T19:46:35.377Z,29.52
2018-02-06T19:49:03.065Z,29.58
2018-02-06T19:51:31.002Z,28.50
2018-02-06T19:53:58.505Z,32.33
2018-02-06T19:56:26.012Z,32.92
2018-02-06T19:58:53.553Z,38.00
2018-02-06T20:01:21.897Z,41.58
2018-02-06T20:03:49.480Z,30.02
2018-02-06T20:06:17.123Z,29.87
2018-02-06T20:08:44.710Z,29.50
2018-02-06T20:11:12.309Z,34.00
2018-02-06T20:13:39.922Z,32.55
2018-02-06T20:16:07.510Z,31.65
2018-02-06T20:18:35.074Z,32.60
2018-02-06T20:21:02.610Z,35.60
2018-02-06T20:23:30.140Z,34.00
2018-02-06T20:25:57.677Z,35.28
2018-02-06T20:28:25.187Z,31.87
2018-02-06T20:30:52.819Z,28.80
2018-02-06T20:33:20.464Z,31.52
2018-02-06T20:35:48.009Z,33.30
2018-02-06T20:38:15.520Z,39.53
2018-02-06T20:40:43.060Z,42.62
2018-02-06T20:43:10.582Z,40.97
2018-02-06T20:45:38.079Z,34.30
2018-02-06T20:48:05.623Z,37.20
2018-02-06T20:50:33.274Z,32.45
2018-02-06T20:53:00.773Z,30.33
2018-02-06T20:55:28.309Z,34.90
2018-02-06T20:57:55.804Z,31.65
2018-02-06T21:00:23.333Z,33.80
2018-02-06T21:02:50.855Z,33.65
2018-02-06T21:05:18.590Z,33.80
2018-02-06T21:07:46.117Z,31.85
2018-02-06T21:10:13.645Z,33.00
2018-02-06T21:12:41.198Z,30.05
2018-02-06T21:15:08.697Z,30.95
2018-02-06T21:17:36.241Z,31.52
2018-02-06T21:20:03.738Z,29.15
2018-02-06T21:22:31.308Z,28.50
2018-02-06T21:24:58.849Z,31.62
2018-02-06T21:27:26.406Z,30.88
2018-02-06T21:29:53.903Z,29.12
2018-02-06T21:32:21.413Z,30.77
2018-02-06T21:34:48.921Z,29.15
2018-02-06T21:37:16.427Z,31.83
2018-02-06T21:39:43.956Z,32.08
2018-02-06T21:42:11.440Z,31.33
2018-02-06T21:44:39.474Z,31.33
2018-02-06T21:47:06.986Z,33.72
2018-02-06T21:49:34.480Z,31.80
2018-02-06T21:52:02.028Z,31.08
2018-02-06T21:54:29.522Z,33.95
2018-02-06T21:56:57.064Z,33.35
2018-02-06T21:59:24.566Z,31.98
2018-02-06T22:01:52.156Z,34.78
2018-02-06T22:04:19.647Z,31.55
2018-02-06T22:06:47.255Z,32.67
2018-02-06T22:09:14.756Z,31.80
2018-02-06T22:11:42.243Z,31.48
2018-02-06T22:14:09.757Z,30.27
2018-02-06T22:16:37.248Z,32.38
2018-02-06T22:19:04.830Z,32.05
2018-02-06T22:21:32.323Z,30.90
2018-02-06T22:23:59.867Z,32.80
2018-02-06T22:26:27.361Z,30.40
2018-02-06T22:28:54.873Z,30.85
2018-02-06T22:31:22.415Z,29.73
2018-02-06T22:33:49.900Z,28.02
2018-02-06T22:36:17.397Z,28.95
2018-02-06T22:38:45.100Z,31.27
2018-02-06T22:41:12.604Z,30.48
2018-02-06T22:43:40.139Z,28.98
2018-02-06T22:46:07.640Z,29.48
2018-02-06T22:48:35.246Z,29.65
2018-02-06T22:51:02.745Z,29.08
2018-02-06T22:53:30.394Z,30.92
2018-02-06T22:55:57.919Z,30.20
2018-02-06T22:58:25.556Z,31.40
2018-02-06T23:00:53.125Z,29.80
2018-02-06T23:03:20.676Z,30.00
2018-02-06T23:05:48.351Z,30.73
2018-02-06T23:08:15.853Z,28.67
2018-02-06T23:10:43.393Z,27.83
2018-02-06T23:13:10.878Z,27.60
2018-02-06T23:15:39.107Z,29.15
2018-02-06T23:18:06.612Z,28.62
2018-02-06T23:20:34.098Z,29.58
2018-02-06T23:23:01.648Z,29.05
2018-02-06T23:25:29.150Z,28.55
2018-02-06T23:27:56.654Z,30.05
2018-02-06T23:30:24.181Z,30.27
2018-02-06T23:32:51.759Z,29.33
2018-02-06T23:35:19.443Z,29.58
2018-02-06T23:37:47.788Z,29.60
2018-02-06T23:40:15.354Z,31.10
2018-02-06T23:42:42.855Z,29.23
2018-02-06T23:45:10.386Z,28.10
2018-02-06T23:47:38.402Z,27.52
2018-02-06T23:50:06.000Z,28.55
2018-02-06T23:52:33.512Z,27.90
2018-02-06T23:55:01.081Z,28.23
2018-02-06T23:57:28.662Z,30.83
2018-02-06T23:59:56.354Z,29.75
